createdAt,value
2022-11-03T00:01:50.131Z,1.17
2022-11-03T00:04:22.492Z,1.77
2022-11-03T00:06:54.476Z,1.58
2022-11-03T00:09:24.877Z,1.60
2022-11-03T00:11:52.263Z,1.17
2022-11-03T00:14:21.985Z,1.60
2022-11-03T00:16:52.887Z,1.30
2022-11-03T00:19:20.556Z,1.80
2022-11-03T00:21:50.564Z,1.48
2022-11-03T00:24:18.192Z,1.40
2022-11-03T00:26:45.403Z,1.90
2022-11-03T00:29:15.997Z,1.40
2022-11-03T00:31:44.807Z,1.23
2022-11-03T00:34:13.125Z,1.48
2022-11-03T00:36:42.922Z,1.33
2022-11-03T00:39:13.063Z,1.30
2022-11-03T00:41:41.379Z,1.40
2022-11-03T00:44:10.600Z,1.45
2022-11-03T00:46:40.192Z,1.33
2022-11-03T00:49:07.446Z,1.67
2022-11-03T00:51:37.428Z,1.70
2022-11-03T00:54:06.337Z,1.52
2022-11-03T00:56:38.780Z,1.00
2022-11-03T00:59:09.920Z,1.55
2022-11-03T01:01:46.022Z,1.40
2022-11-03T01:04:34.015Z,1.60
2022-11-03T01:07:01.976Z,1.33
2022-11-03T01:09:40.573Z,1.25
2022-11-03T01:12:17.189Z,1.38
2022-11-03T01:14:52.256Z,1.23
2022-11-03T01:17:23.768Z,1.83
2022-11-03T01:19:51.634Z,1.60
2022-11-03T01:22:20.209Z,1.40
2022-11-03T01:24:47.841Z,1.48
2022-11-03T01:27:20.166Z,1.48
2022-11-03T01:29:49.906Z,1.42
2022-11-03T01:32:17.155Z,1.30
2022-11-03T01:34:47.268Z,1.85
2022-11-03T01:37:14.895Z,1.25
2022-11-03T01:39:42.138Z,1.60
2022-11-03T01:42:13.793Z,1.20
2022-11-03T01:44:46.753Z,1.65
2022-11-03T01:47:29.781Z,1.70
2022-11-03T01:50:10.482Z,1.52
2022-11-03T01:52:42.611Z,1.38
2022-11-03T01:55:17.960Z,1.67
2022-11-03T01:57:59.822Z,1.15
2022-11-03T02:00:31.510Z,1.10
2022-11-03T02:02:59.416Z,1.20
2022-11-03T02:05:29.094Z,1.35
2022-11-03T02:08:10.108Z,1.25
2022-11-03T02:10:38.649Z,1.27
2022-11-03T02:13:18.242Z,1.38
2022-11-03T02:15:48.716Z,1.33
2022-11-03T02:18:18.739Z,1.52
2022-11-03T02:20:54.303Z,1.73
2022-11-03T02:23:32.027Z,1.35
2022-11-03T02:26:02.637Z,1.50
2022-11-03T02:28:32.570Z,1.83
2022-11-03T02:31:15.968Z,1.67
2022-11-03T02:34:15.826Z,1.40
2022-11-03T02:36:54.790Z,1.50
2022-11-03T02:39:34.777Z,1.60
2022-11-03T02:42:04.075Z,1.48
2022-11-03T02:44:35.899Z,1.60
2022-11-03T02:47:08.140Z,1.63
2022-11-03T02:49:40.015Z,1.77
2022-11-03T02:52:27.838Z,1.60
2022-11-03T02:54:59.409Z,1.17
2022-11-03T02:57:33.121Z,1.40
2022-11-03T03:00:07.464Z,1.50
2022-11-03T03:02:59.898Z,1.42
2022-11-03T03:05:31.956Z,1.60
2022-11-03T03:08:04.105Z,1.40
2022-11-03T03:10:39.476Z,1.70
2022-11-03T03:13:10.300Z,1.55
2022-11-03T03:15:48.222Z,1.30
2022-11-03T03:18:37.882Z,1.15
2022-11-03T03:21:14.461Z,1.73
2022-11-03T03:23:50.491Z,1.00
2022-11-03T03:26:45.703Z,1.30
2022-11-03T03:29:24.877Z,1.52
2022-11-03T03:31:59.190Z,1.58
2022-11-03T03:34:37.310Z,1.33
2022-11-03T03:37:08.911Z,1.30
2022-11-03T03:39:38.961Z,1.17
2022-11-03T03:42:11.041Z,1.65
2022-11-03T03:44:40.580Z,1.10
2022-11-03T03:47:13.543Z,1.08
2022-11-03T03:49:41.087Z,1.60
2022-11-03T03:52:10.914Z,1.67
2022-11-03T03:54:40.670Z,1.45
2022-11-03T03:57:18.436Z,1.45
2022-11-03T03:59:45.841Z,1.25
2022-11-03T04:02:13.969Z,1.48
2022-11-03T04:04:43.807Z,1.63
2022-11-03T04:07:29.940Z,1.10
2022-11-03T04:09:57.675Z,1.42
2022-11-03T04:12:43.339Z,1.58
2022-11-03T04:15:32.459Z,1.52
2022-11-03T04:18:17.963Z,1.20
2022-11-03T04:21:03.704Z,1.48
2022-11-03T04:23:31.420Z,1.40
2022-11-03T04:25:59.995Z,1.17
2022-11-03T04:28:27.848Z,1.60
2022-11-03T04:30:59.820Z,1.40
2022-11-03T04:33:28.930Z,1.35
2022-11-03T04:36:01.515Z,1.15
2022-11-03T04:38:30.048Z,1.23
2022-11-03T04:41:01.419Z,0.90
2022-11-03T04:43:36.675Z,1.50
2022-11-03T04:46:10.150Z,1.73
2022-11-03T04:48:37.980Z,1.65
2022-11-03T04:51:22.667Z,1.20
2022-11-03T04:54:02.337Z,1.83
2022-11-03T04:56:32.324Z,1.55
2022-11-03T04:59:00.059Z,1.35
2022-11-03T05:01:30.479Z,1.23
2022-11-03T05:03:58.351Z,1.60
2022-11-03T05:06:30.331Z,1.55
2022-11-03T05:09:06.335Z,1.45
2022-11-03T05:11:42.581Z,1.15
2022-11-03T05:14:22.497Z,1.85
2022-11-03T05:16:51.694Z,1.60
2022-11-03T05:19:24.466Z,1.20
2022-11-03T05:21:54.624Z,1.33
2022-11-03T05:24:26.006Z,1.50
2022-11-03T05:26:56.178Z,1.55
2022-11-03T05:29:38.599Z,1.48
2022-11-03T05:32:24.592Z,1.55
2022-11-03T05:34:54.150Z,1.52
2022-11-03T05:37:30.923Z,1.38
2022-11-03T05:40:10.897Z,1.30
2022-11-03T05:42:45.058Z,1.40
2022-11-03T05:45:14.991Z,1.58
2022-11-03T05:47:42.532Z,1.23
2022-11-03T05:50:12.705Z,1.52
2022-11-03T05:52:41.316Z,1.75
2022-11-03T05:55:27.165Z,1.38
2022-11-03T05:57:57.597Z,1.45
2022-11-03T06:00:31.474Z,1.65
2022-11-03T06:03:01.865Z,1.35
2022-11-03T06:05:31.054Z,1.48
2022-11-03T06:08:10.614Z,1.27
2022-11-03T06:10:45.587Z,2.13
2022-11-03T06:13:16.571Z,1.63
2022-11-03T06:15:47.040Z,1.80
2022-11-03T06:18:21.541Z,1.05
2022-11-03T06:20:56.786Z,1.55
2022-11-03T06:23:27.355Z,1.55
2022-11-03T06:25:59.299Z,1.20
2022-11-03T06:28:32.607Z,1.25
2022-11-03T06:30:59.960Z,1.42
2022-11-03T06:33:37.743Z,1.20
2022-11-03T06:36:20.224Z,1.23
2022-11-03T06:38:55.652Z,1.52
2022-11-03T06:41:28.430Z,1.92
2022-11-03T06:43:56.886Z,1.40
2022-11-03T06:46:26.451Z,1.40
2022-11-03T06:48:57.389Z,1.33
2022-11-03T06:51:29.262Z,1.50
2022-11-03T06:54:00.138Z,1.90
2022-11-03T06:56:37.203Z,2.20
2022-11-03T06:59:09.137Z,2.38
2022-11-03T07:01:39.396Z,2.20
2022-11-03T07:04:18.089Z,2.30
2022-11-03T07:06:52.993Z,1.80
2022-11-03T07:09:24.417Z,1.67
2022-11-03T07:11:55.138Z,1.23
2022-11-03T07:14:28.827Z,1.63
2022-11-03T07:16:59.861Z,1.52
2022-11-03T07:19:37.042Z,1.73
2022-11-03T07:22:26.509Z,1.85
2022-11-03T07:25:01.500Z,1.73
2022-11-03T07:27:38.655Z,1.42
2022-11-03T07:30:17.608Z,1.65
2022-11-03T07:32:48.240Z,1.50
2022-11-03T07:35:18.771Z,1.13
2022-11-03T07:37:47.755Z,1.63
2022-11-03T07:40:35.911Z,1.40
2022-11-03T07:43:19.412Z,1.52
2022-11-03T07:45:54.543Z,1.42
2022-11-03T07:48:45.378Z,1.45
2022-11-03T07:51:26.663Z,1.50
2022-11-03T07:54:02.619Z,1.20
2022-11-03T07:56:36.155Z,1.20
2022-11-03T07:59:15.293Z,1.55
2022-11-03T08:01:51.606Z,1.15
2022-11-03T08:04:25.277Z,1.38
2022-11-03T08:06:52.751Z,1.35
2022-11-03T08:09:23.329Z,1.42
2022-11-03T08:11:55.839Z,1.63
2022-11-03T08:14:25.443Z,1.33
2022-11-03T08:16:52.656Z,1.30
2022-11-03T08:19:23.012Z,1.58
2022-11-03T08:21:53.454Z,1.20
2022-11-03T08:24:23.407Z,1.40
2022-11-03T08:26:52.496Z,1.48
2022-11-03T08:29:20.630Z,1.15
2022-11-03T08:31:48.280Z,0.82
2022-11-03T08:34:16.044Z,1.10
2022-11-03T08:36:43.477Z,1.02
2022-11-03T08:39:11.155Z,1.45
2022-11-03T08:41:38.512Z,1.00
2022-11-03T08:44:06.589Z,1.02
2022-11-03T08:46:36.545Z,1.27
2022-11-03T08:49:06.693Z,1.20
2022-11-03T08:51:40.123Z,1.50
2022-11-03T08:54:10.585Z,1.33
2022-11-03T08:56:40.417Z,1.05
2022-11-03T08:59:10.379Z,1.17
2022-11-03T09:01:40.366Z,0.90
2022-11-03T09:04:07.802Z,0.98
2022-11-03T09:06:38.902Z,1.17
2022-11-03T09:11:54.556Z,1.13
2022-11-03T09:14:21.738Z,1.15
2022-11-03T09:16:49.492Z,1.15
2022-11-03T09:19:20.568Z,1.20
2022-11-03T09:21:52.251Z,1.20
2022-11-03T09:24:19.544Z,1.38
2022-11-03T09:26:47.036Z,1.33
2022-11-03T09:29:14.321Z,0.98
2022-11-03T09:31:44.466Z,1.30
2022-11-03T09:34:11.863Z,1.10
2022-11-03T09:36:39.661Z,1.00
2022-11-03T09:39:06.825Z,1.05
2022-11-03T09:41:55.932Z,1.20
2022-11-03T09:44:22.056Z,1.40
2022-11-03T09:46:53.791Z,1.17
2022-11-03T09:49:24.180Z,1.23
2022-11-03T09:51:51.419Z,1.10
2022-11-03T09:54:21.495Z,1.23
2022-11-03T09:56:48.709Z,1.05
2022-11-03T09:59:19.436Z,1.23
2022-11-03T10:01:50.217Z,1.10
2022-11-03T10:04:31.197Z,1.08
2022-11-03T10:06:59.129Z,0.95
2022-11-03T10:09:29.440Z,0.95
2022-11-03T10:11:56.943Z,1.05
2022-11-03T10:14:26.647Z,1.00
2022-11-03T10:17:00.451Z,0.90
2022-11-03T10:19:30.859Z,0.93
2022-11-03T10:22:00.207Z,1.00
2022-11-03T10:24:29.840Z,1.00
2022-11-03T10:26:59.362Z,0.77
2022-11-03T10:29:28.648Z,1.08
2022-11-03T10:32:01.460Z,1.20
2022-11-03T10:34:39.229Z,0.90
2022-11-03T10:37:25.217Z,1.10
2022-11-03T10:40:02.319Z,0.98
2022-11-03T10:42:35.403Z,0.80
2022-11-03T10:45:20.281Z,1.20
2022-11-03T10:48:09.471Z,1.17
2022-11-03T10:50:44.731Z,0.70
2022-11-03T10:53:18.192Z,1.13
2022-11-03T10:58:12.760Z,0.90
2022-11-03T11:00:43.520Z,1.00
2022-11-03T11:03:16.456Z,1.00
2022-11-03T11:05:48.490Z,1.00
2022-11-03T11:08:23.624Z,1.10
2022-11-03T11:10:53.800Z,1.08
2022-11-03T11:13:24.340Z,1.38
2022-11-03T11:15:59.393Z,1.05
2022-11-03T11:18:30.213Z,0.93
2022-11-03T11:21:01.116Z,1.23
2022-11-03T11:23:28.641Z,1.02
2022-11-03T11:26:29.605Z,0.80
2022-11-03T11:29:10.311Z,0.75
2022-11-03T11:31:44.887Z,0.90
2022-11-03T11:34:23.560Z,1.35
2022-11-03T11:36:56.807Z,0.60
2022-11-03T11:39:27.581Z,0.93
2022-11-03T11:42:17.893Z,0.82
2022-11-03T11:44:50.597Z,1.00
2022-11-03T11:47:46.772Z,0.70
2022-11-03T11:50:24.123Z,0.70
2022-11-03T11:53:05.098Z,0.98
2022-11-03T11:55:44.351Z,1.00
2022-11-03T11:58:32.075Z,0.95
2022-11-03T12:01:05.682Z,0.90
2022-11-03T12:03:43.091Z,0.95
2022-11-03T12:06:13.382Z,0.75
2022-11-03T12:08:41.822Z,0.80
2022-11-03T12:11:14.613Z,0.90
2022-11-03T12:13:52.510Z,0.80
2022-11-03T12:16:37.082Z,0.70
2022-11-03T12:19:42.444Z,0.65
2022-11-03T12:22:25.940Z,1.10
2022-11-03T12:24:53.597Z,1.00
2022-11-03T12:27:27.500Z,0.80
2022-11-03T12:30:02.203Z,0.80
2022-11-03T12:32:34.882Z,1.15
2022-11-03T12:35:08.408Z,0.77
2022-11-03T12:37:36.463Z,0.70
2022-11-03T12:40:04.450Z,1.00
2022-11-03T12:42:31.775Z,0.75
2022-11-03T12:44:59.322Z,0.77
2022-11-03T12:47:26.994Z,0.88
2022-11-03T12:49:56.567Z,1.00
2022-11-03T12:52:24.356Z,0.95
2022-11-03T12:54:51.603Z,1.02
2022-11-03T12:57:19.276Z,1.08
2022-11-03T12:59:49.373Z,0.98
2022-11-03T13:02:16.978Z,0.90
2022-11-03T13:04:44.725Z,1.20
2022-11-03T13:07:14.894Z,1.27
2022-11-03T13:09:42.785Z,1.20
2022-11-03T13:12:31.023Z,1.50
2022-11-03T13:15:03.997Z,0.95
2022-11-03T13:17:40.226Z,1.67
2022-11-03T13:20:19.675Z,1.10
2022-11-03T13:22:47.340Z,1.48
2022-11-03T13:25:15.089Z,1.20
2022-11-03T13:27:42.402Z,1.20
2022-11-03T13:30:15.754Z,1.23
2022-11-03T13:32:42.994Z,1.10
2022-11-03T13:35:13.782Z,1.10
2022-11-03T13:37:44.096Z,1.10
2022-11-03T13:40:35.619Z,1.55
2022-11-03T13:43:03.144Z,1.10
2022-11-03T13:45:30.384Z,1.20
2022-11-03T13:50:46.746Z,1.10
2022-11-03T13:56:06.814Z,1.02
2022-11-03T14:01:26.589Z,1.40
2022-11-03T14:06:46.712Z,1.05
2022-11-03T14:09:18.615Z,1.45
2022-11-03T14:12:07.175Z,1.30
2022-11-03T14:14:34.562Z,1.40
2022-11-03T14:17:02.290Z,1.30
2022-11-03T14:19:36.768Z,0.95
2022-11-03T14:22:07.066Z,1.15
2022-11-03T14:24:35.010Z,1.23
2022-11-03T14:27:04.677Z,1.08
2022-11-03T14:29:32.170Z,0.93
2022-11-03T14:32:01.789Z,1.30
2022-11-03T14:34:31.396Z,1.35
2022-11-03T14:37:01.383Z,1.10
2022-11-03T14:39:28.946Z,1.17
2022-11-03T14:42:08.536Z,1.10
2022-11-03T14:44:38.567Z,1.55
2022-11-03T14:47:10.178Z,1.35
2022-11-03T14:49:37.644Z,1.38
2022-11-03T14:52:07.449Z,1.30
2022-11-03T14:54:36.027Z,1.23
2022-11-03T14:57:04.846Z,1.50
2022-11-03T14:59:32.967Z,1.38
2022-11-03T15:02:00.695Z,1.45
2022-11-03T15:04:28.804Z,1.42
2022-11-03T15:06:56.168Z,1.27
2022-11-03T15:09:23.440Z,1.55
2022-11-03T15:11:50.729Z,1.35
2022-11-03T15:14:22.309Z,1.60
2022-11-03T15:16:52.065Z,1.30
2022-11-03T15:19:19.815Z,1.23
2022-11-03T15:21:47.120Z,1.00
2022-11-03T15:27:04.682Z,1.35
2022-11-03T15:29:32.020Z,1.50
2022-11-03T15:31:59.261Z,1.40
2022-11-03T15:34:26.897Z,1.48
2022-11-03T15:36:54.138Z,1.60
2022-11-03T15:39:24.255Z,1.80
2022-11-03T15:41:51.532Z,1.90
2022-11-03T15:44:19.158Z,1.80
2022-11-03T15:46:46.412Z,1.75
2022-11-03T15:49:14.057Z,1.45
2022-11-03T15:51:44.250Z,1.50
2022-11-03T15:54:11.519Z,1.73
2022-11-03T15:56:38.687Z,1.90
2022-11-03T15:59:05.985Z,1.48
2022-11-03T16:01:35.365Z,1.67
2022-11-03T16:04:03.265Z,1.50
2022-11-03T16:09:17.585Z,1.90
2022-11-03T16:11:47.576Z,1.77
2022-11-03T16:14:15.208Z,3.90
2022-11-03T16:16:42.986Z,3.65
2022-11-03T16:19:10.413Z,3.58
2022-11-03T16:21:42.537Z,3.17
2022-11-03T16:24:10.340Z,2.88
2022-11-03T16:26:39.936Z,4.78
2022-11-03T16:29:07.120Z,2.95
2022-11-03T16:31:34.758Z,2.97
2022-11-03T16:34:04.752Z,2.80
2022-11-03T16:36:34.143Z,3.95
2022-11-03T16:39:01.337Z,3.03
2022-11-03T16:41:29.043Z,2.78
2022-11-03T16:43:58.710Z,3.33
2022-11-03T16:46:26.456Z,4.05
2022-11-03T16:48:54.177Z,3.20
2022-11-03T16:51:22.200Z,4.13
2022-11-03T16:53:54.609Z,3.38
2022-11-03T16:56:24.222Z,3.85
2022-11-03T16:58:51.900Z,3.50
2022-11-03T17:01:21.718Z,4.30
2022-11-03T17:03:49.906Z,4.32
2022-11-03T17:06:19.904Z,3.67
2022-11-03T17:08:52.749Z,3.05
2022-11-03T17:14:07.667Z,3.42
2022-11-03T17:16:35.191Z,3.50
2022-11-03T17:19:02.848Z,3.78
2022-11-03T17:21:30.692Z,2.83
2022-11-03T17:24:01.032Z,3.90
2022-11-03T17:26:51.430Z,3.65
2022-11-03T17:29:23.331Z,3.00
2022-11-03T17:31:51.572Z,3.10
2022-11-03T17:34:23.942Z,3.25
2022-11-03T17:36:52.747Z,2.88
2022-11-03T17:42:17.430Z,3.00
2022-11-03T17:44:49.870Z,2.22
2022-11-03T17:47:21.059Z,2.83
2022-11-03T17:49:51.421Z,2.30
2022-11-03T17:52:31.879Z,2.65
2022-11-03T17:55:02.231Z,2.08
2022-11-03T17:57:35.116Z,2.55
2022-11-03T18:00:05.014Z,2.30
2022-11-03T18:02:33.506Z,2.05
2022-11-03T18:05:29.617Z,2.25
2022-11-03T18:07:58.370Z,2.10
2022-11-03T18:10:28.853Z,2.15
2022-11-03T18:13:16.920Z,2.00
2022-11-03T18:16:01.184Z,2.30
2022-11-03T18:18:41.905Z,2.58
2022-11-03T18:21:15.260Z,1.98
2022-11-03T18:23:42.518Z,2.40
2022-11-03T18:26:21.747Z,2.00
2022-11-03T18:28:50.321Z,2.20
2022-11-03T18:31:46.840Z,2.00
2022-11-03T18:34:28.117Z,2.40
2022-11-03T18:36:57.935Z,2.20
2022-11-03T18:39:27.823Z,1.73
2022-11-03T18:41:56.168Z,2.00
2022-11-03T18:44:29.525Z,2.13
2022-11-03T18:46:58.176Z,1.75
2022-11-03T18:49:27.388Z,1.67
2022-11-03T18:52:02.798Z,2.05
2022-11-03T18:54:37.336Z,1.83
2022-11-03T18:57:04.663Z,1.98
2022-11-03T18:59:44.673Z,2.78
2022-11-03T19:02:23.720Z,2.47
2022-11-03T19:04:54.329Z,2.00
2022-11-03T19:07:36.095Z,2.20
2022-11-03T19:10:10.066Z,1.73
2022-11-03T19:12:39.809Z,2.15
2022-11-03T19:15:18.431Z,2.13
2022-11-03T19:17:54.806Z,1.85
2022-11-03T19:20:25.558Z,2.20
2022-11-03T19:22:53.341Z,2.20
2022-11-03T19:25:21.006Z,1.88
2022-11-03T19:27:51.518Z,1.73
2022-11-03T19:30:20.588Z,1.75
2022-11-03T19:32:52.615Z,1.75
2022-11-03T19:35:32.563Z,2.03
2022-11-03T19:38:12.484Z,2.03
2022-11-03T19:41:03.700Z,1.88
2022-11-03T19:43:35.127Z,1.90
2022-11-03T19:46:04.153Z,2.13
2022-11-03T19:48:34.287Z,1.88
2022-11-03T19:51:02.611Z,2.10
2022-11-03T19:53:31.473Z,1.90
2022-11-03T19:55:59.595Z,1.80
2022-11-03T19:58:30.472Z,1.73
2022-11-03T20:01:04.103Z,1.90
2022-11-03T20:03:33.983Z,1.85
2022-11-03T20:06:05.689Z,1.85
2022-11-03T20:08:34.384Z,2.15
2022-11-03T20:11:04.300Z,1.95
2022-11-03T20:13:41.764Z,2.13
2022-11-03T20:16:14.392Z,2.00
2022-11-03T20:18:42.448Z,1.73
2022-11-03T20:21:22.641Z,1.70
2022-11-03T20:23:54.648Z,1.38
2022-11-03T20:26:24.074Z,0.70
2022-11-03T20:28:54.610Z,0.75
2022-11-03T20:31:22.257Z,0.70
2022-11-03T20:33:52.195Z,0.70
2022-11-03T20:36:21.748Z,0.60
2022-11-03T20:38:59.051Z,0.68
2022-11-03T20:41:30.225Z,0.47
2022-11-03T20:43:59.171Z,0.70
2022-11-03T20:46:32.247Z,0.40
2022-11-03T20:49:00.210Z,0.70
2022-11-03T20:51:32.199Z,0.60
2022-11-03T20:54:00.490Z,0.80
2022-11-03T20:56:28.487Z,0.60
2022-11-03T20:58:57.063Z,0.60
2022-11-03T21:01:33.242Z,0.80
2022-11-03T21:04:02.265Z,0.88
2022-11-03T21:06:33.097Z,0.73
2022-11-03T21:09:02.441Z,0.80
2022-11-03T21:11:40.503Z,0.80
2022-11-03T21:14:20.876Z,0.70
2022-11-03T21:17:07.168Z,0.85
2022-11-03T21:19:53.236Z,0.80
2022-11-03T21:22:50.374Z,0.70
2022-11-03T21:25:16.833Z,0.50
2022-11-03T21:27:44.430Z,0.68
2022-11-03T21:30:13.935Z,0.70
2022-11-03T21:32:41.573Z,0.63
2022-11-03T21:35:20.914Z,0.70
2022-11-03T21:37:48.883Z,0.80
2022-11-03T21:40:18.926Z,0.82
2022-11-03T21:43:04.895Z,0.88
2022-11-03T21:45:32.846Z,1.05
2022-11-03T21:48:19.184Z,1.05
2022-11-03T21:50:46.693Z,1.35
2022-11-03T21:53:14.189Z,1.38
2022-11-03T21:55:46.421Z,1.50
2022-11-03T21:58:14.161Z,1.75
2022-11-03T22:00:41.638Z,1.70
2022-11-03T22:03:09.342Z,1.60
2022-11-03T22:05:37.059Z,1.75
2022-11-03T22:08:13.051Z,1.90
2022-11-03T22:10:41.277Z,1.98
2022-11-03T22:13:10.226Z,1.83
2022-11-03T22:15:59.501Z,1.85
2022-11-03T22:18:26.687Z,2.20
2022-11-03T22:21:15.612Z,2.10
2022-11-03T22:24:04.211Z,2.40
2022-11-03T22:26:49.780Z,2.30
2022-11-03T22:29:35.285Z,2.38
2022-11-03T22:32:02.474Z,2.30
2022-11-03T22:34:48.055Z,2.28
2022-11-03T22:37:15.269Z,2.28
2022-11-03T22:40:01.052Z,2.08
2022-11-03T22:42:46.677Z,2.10
2022-11-03T22:45:32.839Z,2.13
2022-11-03T22:48:02.449Z,1.90
2022-11-03T22:50:29.636Z,2.05
2022-11-03T22:52:59.681Z,2.00
2022-11-03T22:55:26.872Z,1.90
2022-11-03T22:57:54.106Z,2.03
2022-11-03T23:00:22.508Z,2.00
2022-11-03T23:02:53.842Z,2.17
2022-11-03T23:05:20.997Z,2.30
2022-11-03T23:07:48.229Z,1.90
2022-11-03T23:10:15.975Z,1.95
2022-11-03T23:12:43.191Z,1.73
2022-11-03T23:15:29.366Z,1.60
2022-11-03T23:18:14.911Z,1.40
2022-11-03T23:21:00.882Z,1.42
2022-11-03T23:23:46.401Z,1.58
2022-11-03T23:26:13.656Z,1.42
2022-11-03T23:28:41.229Z,1.50
2022-11-03T23:31:10.055Z,1.60
2022-11-03T23:33:37.581Z,1.20
2022-11-03T23:36:10.557Z,1.73
2022-11-03T23:38:39.381Z,1.10
2022-11-03T23:41:07.787Z,1.00
2022-11-03T23:43:35.184Z,0.93
2022-11-03T23:46:21.168Z,0.80
2022-11-03T23:48:48.926Z,1.13
2022-11-03T23:51:20.810Z,1.10
2022-11-03T23:53:48.980Z,0.95
2022-11-03T23:56:37.489Z,0.88
2022-11-03T23:59:05.291Z,1.00
